Beaminster, United Kingdom
Current Conditions -  °F | °C
As of 5:50 AM on Tuesday 21 Oct 2014 (Local Time) from EGDY Reporting Station
Moderate Rain Moderate Rain  
Wind Chill: 59°   Ceiling: 1000
Heat Index: 59°   Visibility: 2.5mi
Dew Point: 52°   Wind: 14mph
Humidity: 77%   Direction: 220°SW
Pressure: 29.62"   Gusts: NA
Location:  50.81°N, 2.74°W
Report Text: EGDY 210450Z 22012KT 4000 RADZ BKN010 OVC020 15/11 Q1003 GRN
Loading
Personal Weather Stations






























Interactive Weather Map New forecast layout! Learn more

10-Day Weather Forecast

Advertisements
Track Severe Weather on mobile